sensor_id;sensor_type;location;lat;lon;timestamp;temperature;humidity
12053;DHT22;6087;48.982;12.064;2022-12-07T00:01:26;3.70;17.40
12053;DHT22;6087;48.982;12.064;2022-12-07T00:03:55;3.60;5.20
12053;DHT22;6087;48.982;12.064;2022-12-07T00:06:26;3.50;23.40
12053;DHT22;6087;48.982;12.064;2022-12-07T00:08:53;3.40;31.30
12053;DHT22;6087;48.982;12.064;2022-12-07T00:11:22;3.40;21.20
12053;DHT22;6087;48.982;12.064;2022-12-07T00:13:51;3.40;39.70
12053;DHT22;6087;48.982;12.064;2022-12-07T00:16:20;3.50;37.90
12053;DHT22;6087;48.982;12.064;2022-12-07T00:18:47;3.40;44.60
12053;DHT22;6087;48.982;12.064;2022-12-07T00:21:15;3.40;46.70
12053;DHT22;6087;48.982;12.064;2022-12-07T00:23:43;3.40;34.50
12053;DHT22;6087;48.982;12.064;2022-12-07T00:26:12;3.30;51.50
12053;DHT22;6087;48.982;12.064;2022-12-07T00:28:40;3.30;29.20
12053;DHT22;6087;48.982;12.064;2022-12-07T00:31:09;3.30;30.20
12053;DHT22;6087;48.982;12.064;2022-12-07T00:33:37;3.20;53.70
12053;DHT22;6087;48.982;12.064;2022-12-07T00:36:10;3.10;37.20
12053;DHT22;6087;48.982;12.064;2022-12-07T00:38:38;3.00;51.40
12053;DHT22;6087;48.982;12.064;2022-12-07T00:41:09;3.00;71.80
12053;DHT22;6087;48.982;12.064;2022-12-07T00:43:36;3.10;57.40
12053;DHT22;6087;48.982;12.064;2022-12-07T00:46:05;3.10;62.10
12053;DHT22;6087;48.982;12.064;2022-12-07T00:48:32;3.10;51.90
12053;DHT22;6087;48.982;12.064;2022-12-07T00:50:59;3.10;53.80
12053;DHT22;6087;48.982;12.064;2022-12-07T00:53:26;3.10;57.10
12053;DHT22;6087;48.982;12.064;2022-12-07T00:55:53;3.20;40.00
12053;DHT22;6087;48.982;12.064;2022-12-07T00:58:21;3.10;38.50
12053;DHT22;6087;48.982;12.064;2022-12-07T01:00:48;3.10;28.20
12053;DHT22;6087;48.982;12.064;2022-12-07T01:03:17;3.10;59.20
12053;DHT22;6087;48.982;12.064;2022-12-07T01:05:52;3.00;37.90
12053;DHT22;6087;48.982;12.064;2022-12-07T01:08:20;3.10;57.90
12053;DHT22;6087;48.982;12.064;2022-12-07T01:10:47;3.10;44.10
12053;DHT22;6087;48.982;12.064;2022-12-07T01:13:14;3.20;32.80
12053;DHT22;6087;48.982;12.064;2022-12-07T01:15:42;3.10;26.10
12053;DHT22;6087;48.982;12.064;2022-12-07T01:18:09;3.10;50.60
12053;DHT22;6087;48.982;12.064;2022-12-07T01:20:38;3.10;36.90
12053;DHT22;6087;48.982;12.064;2022-12-07T01:23:05;3.20;23.90
12053;DHT22;6087;48.982;12.064;2022-12-07T01:25:32;3.30;11.60
12053;DHT22;6087;48.982;12.064;2022-12-07T01:27:59;3.20;1.00
12053;DHT22;6087;48.982;12.064;2022-12-07T01:30:26;3.20;1.00
12053;DHT22;6087;48.982;12.064;2022-12-07T01:32:55;3.10;1.00
12053;DHT22;6087;48.982;12.064;2022-12-07T01:35:21;3.00;1.00
12053;DHT22;6087;48.982;12.064;2022-12-07T01:37:50;3.00;1.00
12053;DHT22;6087;48.982;12.064;2022-12-07T01:40:17;2.90;1.00
12053;DHT22;6087;48.982;12.064;2022-12-07T01:42:44;2.90;1.00
12053;DHT22;6087;48.982;12.064;2022-12-07T01:45:37;2.90;1.00
12053;DHT22;6087;48.982;12.064;2022-12-07T01:48:05;2.90;1.00
12053;DHT22;6087;48.982;12.064;2022-12-07T01:50:34;2.80;1.00
12053;DHT22;6087;48.982;12.064;2022-12-07T01:53:05;2.80;1.00
12053;DHT22;6087;48.982;12.064;2022-12-07T01:55:34;2.80;1.00
12053;DHT22;6087;48.982;12.064;2022-12-07T01:58:01;2.80;1.00
12053;DHT22;6087;48.982;12.064;2022-12-07T02:00:29;2.70;1.00
12053;DHT22;6087;48.982;12.064;2022-12-07T02:02:59;2.80;1.00
12053;DHT22;6087;48.982;12.064;2022-12-07T02:05:27;2.80;1.00
12053;DHT22;6087;48.982;12.064;2022-12-07T02:07:56;2.80;1.00
12053;DHT22;6087;48.982;12.064;2022-12-07T02:10:26;2.80;1.00
12053;DHT22;6087;48.982;12.064;2022-12-07T02:12:57;2.90;1.00
12053;DHT22;6087;48.982;12.064;2022-12-07T02:15:34;2.90;1.00
12053;DHT22;6087;48.982;12.064;2022-12-07T02:18:07;2.90;1.00
12053;DHT22;6087;48.982;12.064;2022-12-07T02:20:40;2.80;1.00
12053;DHT22;6087;48.982;12.064;2022-12-07T02:23:42;2.80;1.00
12053;DHT22;6087;48.982;12.064;2022-12-07T02:26:33;2.90;1.00
12053;DHT22;6087;48.982;12.064;2022-12-07T02:29:15;3.00;1.00
12053;DHT22;6087;48.982;12.064;2022-12-07T02:31:48;2.90;1.00
12053;DHT22;6087;48.982;12.064;2022-12-07T02:34:21;2.80;1.00
12053;DHT22;6087;48.982;12.064;2022-12-07T02:36:53;2.80;1.00
12053;DHT22;6087;48.982;12.064;2022-12-07T02:39:28;2.80;1.00
12053;DHT22;6087;48.982;12.064;2022-12-07T02:42:02;2.80;1.00
12053;DHT22;6087;48.982;12.064;2022-12-07T02:44:30;2.70;1.00
12053;DHT22;6087;48.982;12.064;2022-12-07T02:47:02;2.60;1.00
12053;DHT22;6087;48.982;12.064;2022-12-07T02:49:29;2.50;1.00
12053;DHT22;6087;48.982;12.064;2022-12-07T02:51:57;2.50;19.40
12053;DHT22;6087;48.982;12.064;2022-12-07T02:54:24;2.60;9.40
12053;DHT22;6087;48.982;12.064;2022-12-07T02:56:56;2.60;8.00
12053;DHT22;6087;48.982;12.064;2022-12-07T02:59:32;2.50;6.00
12053;DHT22;6087;48.982;12.064;2022-12-07T03:02:12;2.50;44.80
12053;DHT22;6087;48.982;12.064;2022-12-07T03:04:49;2.40;70.60
12053;DHT22;6087;48.982;12.064;2022-12-07T03:07:25;2.40;71.20
12053;DHT22;6087;48.982;12.064;2022-12-07T03:10:01;2.50;76.60
12053;DHT22;6087;48.982;12.064;2022-12-07T03:12:32;2.60;79.40
12053;DHT22;6087;48.982;12.064;2022-12-07T03:15:08;2.60;99.90
12053;DHT22;6087;48.982;12.064;2022-12-07T03:17:39;2.60;92.70
12053;DHT22;6087;48.982;12.064;2022-12-07T03:20:09;2.60;90.70
12053;DHT22;6087;48.982;12.064;2022-12-07T03:22:40;2.60;69.10
12053;DHT22;6087;48.982;12.064;2022-12-07T03:25:10;2.60;79.80
12053;DHT22;6087;48.982;12.064;2022-12-07T03:27:42;2.60;95.50
12053;DHT22;6087;48.982;12.064;2022-12-07T03:30:16;2.60;87.00
12053;DHT22;6087;48.982;12.064;2022-12-07T03:32:47;2.50;90.50
12053;DHT22;6087;48.982;12.064;2022-12-07T03:35:18;2.60;98.20
12053;DHT22;6087;48.982;12.064;2022-12-07T03:37:51;2.70;66.10
12053;DHT22;6087;48.982;12.064;2022-12-07T03:40:22;2.60;81.20
12053;DHT22;6087;48.982;12.064;2022-12-07T03:42:51;2.60;68.90
12053;DHT22;6087;48.982;12.064;2022-12-07T03:45:24;2.60;82.20
12053;DHT22;6087;48.982;12.064;2022-12-07T03:48:03;2.70;68.10
12053;DHT22;6087;48.982;12.064;2022-12-07T03:50:38;2.80;73.10
12053;DHT22;6087;48.982;12.064;2022-12-07T03:53:39;2.90;39.90
12053;DHT22;6087;48.982;12.064;2022-12-07T03:56:07;3.00;16.20
12053;DHT22;6087;48.982;12.064;2022-12-07T03:58:35;2.90;12.40
12053;DHT22;6087;48.982;12.064;2022-12-07T04:01:03;2.90;20.50
12053;DHT22;6087;48.982;12.064;2022-12-07T04:03:30;2.80;28.60
12053;DHT22;6087;48.982;12.064;2022-12-07T04:05:57;2.80;26.70
12053;DHT22;6087;48.982;12.064;2022-12-07T04:08:24;2.80;39.20
12053;DHT22;6087;48.982;12.064;2022-12-07T04:10:51;2.70;62.80
12053;DHT22;6087;48.982;12.064;2022-12-07T04:13:18;2.70;47.10
12053;DHT22;6087;48.982;12.064;2022-12-07T04:15:45;2.60;51.70
12053;DHT22;6087;48.982;12.064;2022-12-07T04:18:13;2.60;69.20
12053;DHT22;6087;48.982;12.064;2022-12-07T04:20:40;2.70;72.80
12053;DHT22;6087;48.982;12.064;2022-12-07T04:23:07;2.70;60.60
12053;DHT22;6087;48.982;12.064;2022-12-07T04:25:34;2.90;35.50
12053;DHT22;6087;48.982;12.064;2022-12-07T04:28:01;2.80;41.00
12053;DHT22;6087;48.982;12.064;2022-12-07T04:30:28;2.70;25.10
12053;DHT22;6087;48.982;12.064;2022-12-07T04:32:55;2.60;69.20
12053;DHT22;6087;48.982;12.064;2022-12-07T04:35:24;2.60;66.60
12053;DHT22;6087;48.982;12.064;2022-12-07T04:37:51;2.50;96.20
12053;DHT22;6087;48.982;12.064;2022-12-07T04:40:18;2.50;93.90
12053;DHT22;6087;48.982;12.064;2022-12-07T04:42:45;2.50;95.50
12053;DHT22;6087;48.982;12.064;2022-12-07T04:45:12;2.50;99.90
12053;DHT22;6087;48.982;12.064;2022-12-07T04:47:38;2.60;94.40
12053;DHT22;6087;48.982;12.064;2022-12-07T04:50:06;2.50;83.00
12053;DHT22;6087;48.982;12.064;2022-12-07T04:52:35;2.50;80.10
12053;DHT22;6087;48.982;12.064;2022-12-07T04:55:02;2.50;99.00
12053;DHT22;6087;48.982;12.064;2022-12-07T04:57:29;2.50;99.90
12053;DHT22;6087;48.982;12.064;2022-12-07T04:59:56;2.50;99.10
12053;DHT22;6087;48.982;12.064;2022-12-07T05:02:23;2.50;95.50
12053;DHT22;6087;48.982;12.064;2022-12-07T05:04:49;2.50;99.90
12053;DHT22;6087;48.982;12.064;2022-12-07T05:07:16;2.50;97.70
12053;DHT22;6087;48.982;12.064;2022-12-07T05:09:45;2.50;99.70
12053;DHT22;6087;48.982;12.064;2022-12-07T05:12:12;2.50;95.20
12053;DHT22;6087;48.982;12.064;2022-12-07T05:14:39;2.60;84.50
12053;DHT22;6087;48.982;12.064;2022-12-07T05:17:06;2.50;79.80
12053;DHT22;6087;48.982;12.064;2022-12-07T05:19:32;2.60;99.90
12053;DHT22;6087;48.982;12.064;2022-12-07T05:21:59;2.60;94.00
12053;DHT22;6087;48.982;12.064;2022-12-07T05:24:26;2.60;86.00
12053;DHT22;6087;48.982;12.064;2022-12-07T05:26:55;2.60;91.10
12053;DHT22;6087;48.982;12.064;2022-12-07T05:29:21;2.70;37.80
12053;DHT22;6087;48.982;12.064;2022-12-07T05:31:48;2.70;1.00
12053;DHT22;6087;48.982;12.064;2022-12-07T05:34:15;2.60;16.40
12053;DHT22;6087;48.982;12.064;2022-12-07T05:36:42;2.60;6.50
12053;DHT22;6087;48.982;12.064;2022-12-07T05:39:10;2.70;20.50
12053;DHT22;6087;48.982;12.064;2022-12-07T05:41:37;2.60;1.00
12053;DHT22;6087;48.982;12.064;2022-12-07T05:44:22;2.60;1.80
12053;DHT22;6087;48.982;12.064;2022-12-07T05:46:49;2.60;1.00
12053;DHT22;6087;48.982;12.064;2022-12-07T05:49:16;2.60;1.00
12053;DHT22;6087;48.982;12.064;2022-12-07T05:51:43;2.60;1.00
12053;DHT22;6087;48.982;12.064;2022-12-07T05:54:10;2.60;1.00
12053;DHT22;6087;48.982;12.064;2022-12-07T05:56:37;2.40;5.20
12053;DHT22;6087;48.982;12.064;2022-12-07T05:59:04;2.30;9.70
12053;DHT22;6087;48.982;12.064;2022-12-07T06:01:50;2.10;62.00
12053;DHT22;6087;48.982;12.064;2022-12-07T06:04:18;2.10;93.10
12053;DHT22;6087;48.982;12.064;2022-12-07T06:06:45;2.20;51.10
12053;DHT22;6087;48.982;12.064;2022-12-07T06:09:12;2.30;73.50
12053;DHT22;6087;48.982;12.064;2022-12-07T06:11:39;2.30;56.20
12053;DHT22;6087;48.982;12.064;2022-12-07T06:14:23;2.20;45.50
12053;DHT22;6087;48.982;12.064;2022-12-07T06:16:52;2.10;19.60
12053;DHT22;6087;48.982;12.064;2022-12-07T06:19:18;2.10;33.10
12053;DHT22;6087;48.982;12.064;2022-12-07T06:21:45;2.00;34.60
12053;DHT22;6087;48.982;12.064;2022-12-07T06:24:13;2.00;50.70
12053;DHT22;6087;48.982;12.064;2022-12-07T06:26:40;2.10;42.60
12053;DHT22;6087;48.982;12.064;2022-12-07T06:29:08;2.10;26.10
12053;DHT22;6087;48.982;12.064;2022-12-07T06:31:35;2.00;49.20
12053;DHT22;6087;48.982;12.064;2022-12-07T06:34:06;2.10;42.10
12053;DHT22;6087;48.982;12.064;2022-12-07T06:36:33;2.10;62.50
12053;DHT22;6087;48.982;12.064;2022-12-07T06:39:00;2.10;51.30
12053;DHT22;6087;48.982;12.064;2022-12-07T06:41:27;2.10;59.90
12053;DHT22;6087;48.982;12.064;2022-12-07T06:43:54;2.20;24.80
12053;DHT22;6087;48.982;12.064;2022-12-07T06:46:21;2.20;22.90
12053;DHT22;6087;48.982;12.064;2022-12-07T06:48:48;2.20;32.00
12053;DHT22;6087;48.982;12.064;2022-12-07T06:51:17;2.20;9.60
12053;DHT22;6087;48.982;12.064;2022-12-07T06:53:44;2.20;17.80
12053;DHT22;6087;48.982;12.064;2022-12-07T06:56:11;2.10;23.00
12053;DHT22;6087;48.982;12.064;2022-12-07T06:58:39;2.10;23.70
12053;DHT22;6087;48.982;12.064;2022-12-07T07:01:09;2.20;27.60
12053;DHT22;6087;48.982;12.064;2022-12-07T07:03:36;2.10;47.60
12053;DHT22;6087;48.982;12.064;2022-12-07T07:06:03;2.10;26.90
12053;DHT22;6087;48.982;12.064;2022-12-07T07:08:31;2.20;43.30
12053;DHT22;6087;48.982;12.064;2022-12-07T07:10:58;2.20;30.90
12053;DHT22;6087;48.982;12.064;2022-12-07T07:13:26;2.20;19.60
12053;DHT22;6087;48.982;12.064;2022-12-07T07:15:53;2.20;27.60
12053;DHT22;6087;48.982;12.064;2022-12-07T07:18:20;2.20;15.20
12053;DHT22;6087;48.982;12.064;2022-12-07T07:20:47;2.20;6.50
12053;DHT22;6087;48.982;12.064;2022-12-07T07:23:14;2.20;2.00
12053;DHT22;6087;48.982;12.064;2022-12-07T07:25:43;2.20;24.60
12053;DHT22;6087;48.982;12.064;2022-12-07T07:28:10;2.00;28.10
12053;DHT22;6087;48.982;12.064;2022-12-07T07:30:37;2.00;50.00
12053;DHT22;6087;48.982;12.064;2022-12-07T07:33:05;2.00;15.00
12053;DHT22;6087;48.982;12.064;2022-12-07T07:35:33;2.00;14.60
12053;DHT22;6087;48.982;12.064;2022-12-07T07:38:00;2.00;27.00
12053;DHT22;6087;48.982;12.064;2022-12-07T07:40:28;1.90;30.50
12053;DHT22;6087;48.982;12.064;2022-12-07T07:42:57;2.00;29.80
12053;DHT22;6087;48.982;12.064;2022-12-07T07:45:25;2.00;19.90
12053;DHT22;6087;48.982;12.064;2022-12-07T07:47:52;2.00;1.00
12053;DHT22;6087;48.982;12.064;2022-12-07T07:50:21;2.10;1.00
12053;DHT22;6087;48.982;12.064;2022-12-07T07:52:48;2.10;1.00
12053;DHT22;6087;48.982;12.064;2022-12-07T07:55:15;2.20;1.00
12053;DHT22;6087;48.982;12.064;2022-12-07T07:57:42;2.40;1.00
12053;DHT22;6087;48.982;12.064;2022-12-07T08:00:13;2.50;1.00
12053;DHT22;6087;48.982;12.064;2022-12-07T08:02:40;2.60;1.00
12053;DHT22;6087;48.982;12.064;2022-12-07T08:05:08;2.60;1.00
12053;DHT22;6087;48.982;12.064;2022-12-07T08:07:35;2.50;1.00
12053;DHT22;6087;48.982;12.064;2022-12-07T08:10:03;2.40;1.00
12053;DHT22;6087;48.982;12.064;2022-12-07T08:12:30;2.40;1.00
12053;DHT22;6087;48.982;12.064;2022-12-07T08:14:57;2.40;1.00
12053;DHT22;6087;48.982;12.064;2022-12-07T08:17:25;2.40;1.00
12053;DHT22;6087;48.982;12.064;2022-12-07T08:19:52;2.50;1.00
12053;DHT22;6087;48.982;12.064;2022-12-07T08:22:19;2.50;1.00
12053;DHT22;6087;48.982;12.064;2022-12-07T08:24:46;2.60;1.00
12053;DHT22;6087;48.982;12.064;2022-12-07T08:27:13;2.50;1.00
12053;DHT22;6087;48.982;12.064;2022-12-07T08:29:40;2.50;1.00
12053;DHT22;6087;48.982;12.064;2022-12-07T08:32:06;2.60;1.00
12053;DHT22;6087;48.982;12.064;2022-12-07T08:34:35;2.60;1.00
12053;DHT22;6087;48.982;12.064;2022-12-07T08:37:02;2.70;1.00
12053;DHT22;6087;48.982;12.064;2022-12-07T08:39:29;2.80;1.00
12053;DHT22;6087;48.982;12.064;2022-12-07T08:41:56;2.80;1.00
12053;DHT22;6087;48.982;12.064;2022-12-07T08:44:23;2.90;1.00
12053;DHT22;6087;48.982;12.064;2022-12-07T08:46:52;2.90;1.00
12053;DHT22;6087;48.982;12.064;2022-12-07T08:49:23;2.90;1.00
12053;DHT22;6087;48.982;12.064;2022-12-07T08:51:54;2.90;1.00
12053;DHT22;6087;48.982;12.064;2022-12-07T08:54:21;2.90;1.00
12053;DHT22;6087;48.982;12.064;2022-12-07T08:56:49;3.00;1.00
12053;DHT22;6087;48.982;12.064;2022-12-07T08:59:18;2.90;1.00
12053;DHT22;6087;48.982;12.064;2022-12-07T09:01:45;2.80;1.00
12053;DHT22;6087;48.982;12.064;2022-12-07T09:04:12;2.80;1.00
12053;DHT22;6087;48.982;12.064;2022-12-07T09:06:41;2.80;1.00
12053;DHT22;6087;48.982;12.064;2022-12-07T09:09:11;2.80;1.00
12053;DHT22;6087;48.982;12.064;2022-12-07T09:11:38;2.90;1.00
12053;DHT22;6087;48.982;12.064;2022-12-07T09:14:05;2.90;1.00
12053;DHT22;6087;48.982;12.064;2022-12-07T09:16:32;3.00;1.00
12053;DHT22;6087;48.982;12.064;2022-12-07T09:18:59;3.10;1.00
12053;DHT22;6087;48.982;12.064;2022-12-07T09:21:26;3.20;1.00
12053;DHT22;6087;48.982;12.064;2022-12-07T09:23:52;3.10;1.00
12053;DHT22;6087;48.982;12.064;2022-12-07T09:26:21;3.10;1.00
12053;DHT22;6087;48.982;12.064;2022-12-07T09:28:48;3.10;1.00
12053;DHT22;6087;48.982;12.064;2022-12-07T09:31:15;3.10;1.00
12053;DHT22;6087;48.982;12.064;2022-12-07T09:33:42;3.20;1.00
12053;DHT22;6087;48.982;12.064;2022-12-07T09:36:09;3.30;1.00
12053;DHT22;6087;48.982;12.064;2022-12-07T09:38:36;3.30;1.00
12053;DHT22;6087;48.982;12.064;2022-12-07T09:41:05;3.20;1.00
12053;DHT22;6087;48.982;12.064;2022-12-07T09:43:34;3.20;1.00
12053;DHT22;6087;48.982;12.064;2022-12-07T09:46:02;3.20;1.00
12053;DHT22;6087;48.982;12.064;2022-12-07T09:48:32;3.20;1.00
12053;DHT22;6087;48.982;12.064;2022-12-07T09:51:01;3.20;1.00
12053;DHT22;6087;48.982;12.064;2022-12-07T09:53:32;3.20;1.00
12053;DHT22;6087;48.982;12.064;2022-12-07T09:56:00;3.30;1.00
12053;DHT22;6087;48.982;12.064;2022-12-07T09:58:28;3.20;1.00
12053;DHT22;6087;48.982;12.064;2022-12-07T10:01:00;3.10;1.00
12053;DHT22;6087;48.982;12.064;2022-12-07T10:03:28;3.10;1.00
12053;DHT22;6087;48.982;12.064;2022-12-07T10:05:55;3.00;1.00
12053;DHT22;6087;48.982;12.064;2022-12-07T10:08:24;2.90;1.00
12053;DHT22;6087;48.982;12.064;2022-12-07T10:10:53;3.00;1.00
12053;DHT22;6087;48.982;12.064;2022-12-07T10:13:23;2.80;1.00
12053;DHT22;6087;48.982;12.064;2022-12-07T10:16:01;2.80;1.00
12053;DHT22;6087;48.982;12.064;2022-12-07T10:18:30;2.90;1.00
12053;DHT22;6087;48.982;12.064;2022-12-07T10:21:12;2.90;1.00
12053;DHT22;6087;48.982;12.064;2022-12-07T10:23:41;2.80;1.00
12053;DHT22;6087;48.982;12.064;2022-12-07T10:26:29;2.90;1.00
12053;DHT22;6087;48.982;12.064;2022-12-07T10:28:59;2.90;1.00
12053;DHT22;6087;48.982;12.064;2022-12-07T10:31:28;2.90;1.00
12053;DHT22;6087;48.982;12.064;2022-12-07T10:33:57;2.90;1.00
12053;DHT22;6087;48.982;12.064;2022-12-07T10:36:25;2.80;1.00
12053;DHT22;6087;48.982;12.064;2022-12-07T10:38:59;2.70;1.00
12053;DHT22;6087;48.982;12.064;2022-12-07T10:41:26;2.80;1.00
12053;DHT22;6087;48.982;12.064;2022-12-07T10:43:55;2.70;1.00
12053;DHT22;6087;48.982;12.064;2022-12-07T10:46:51;2.70;1.00
12053;DHT22;6087;48.982;12.064;2022-12-07T10:49:40;2.70;1.00
12053;DHT22;6087;48.982;12.064;2022-12-07T10:52:16;2.70;1.00
12053;DHT22;6087;48.982;12.064;2022-12-07T10:54:52;2.70;1.00
12053;DHT22;6087;48.982;12.064;2022-12-07T10:57:34;2.80;1.00
12053;DHT22;6087;48.982;12.064;2022-12-07T11:00:11;2.90;1.00
12053;DHT22;6087;48.982;12.064;2022-12-07T11:05:49;2.90;1.00
12053;DHT22;6087;48.982;12.064;2022-12-07T11:08:33;2.80;1.00
12053;DHT22;6087;48.982;12.064;2022-12-07T11:11:08;2.90;1.00
12053;DHT22;6087;48.982;12.064;2022-12-07T11:13:44;2.90;1.00
12053;DHT22;6087;48.982;12.064;2022-12-07T11:16:33;2.90;1.00
12053;DHT22;6087;48.982;12.064;2022-12-07T11:19:30;2.90;1.00
12053;DHT22;6087;48.982;12.064;2022-12-07T11:22:03;2.90;1.00
12053;DHT22;6087;48.982;12.064;2022-12-07T11:24:37;2.90;1.00
12053;DHT22;6087;48.982;12.064;2022-12-07T11:27:14;3.00;1.00
12053;DHT22;6087;48.982;12.064;2022-12-07T11:29:54;3.00;1.00
12053;DHT22;6087;48.982;12.064;2022-12-07T11:32:34;3.00;1.00
12053;DHT22;6087;48.982;12.064;2022-12-07T11:35:08;3.00;1.00
12053;DHT22;6087;48.982;12.064;2022-12-07T11:37:38;3.00;1.00
12053;DHT22;6087;48.982;12.064;2022-12-07T11:40:24;3.10;1.00
12053;DHT22;6087;48.982;12.064;2022-12-07T11:42:57;3.10;1.00
12053;DHT22;6087;48.982;12.064;2022-12-07T11:45:27;3.20;1.00
12053;DHT22;6087;48.982;12.064;2022-12-07T11:47:59;3.20;1.00
12053;DHT22;6087;48.982;12.064;2022-12-07T11:50:31;3.20;1.00
12053;DHT22;6087;48.982;12.064;2022-12-07T11:53:03;3.10;99.90
12053;DHT22;6087;48.982;12.064;2022-12-07T11:55:41;3.20;1.00
12053;DHT22;6087;48.982;12.064;2022-12-07T11:58:19;3.20;1.00
12053;DHT22;6087;48.982;12.064;2022-12-07T12:00:49;3.30;99.90
12053;DHT22;6087;48.982;12.064;2022-12-07T12:03:23;3.30;99.90
12053;DHT22;6087;48.982;12.064;2022-12-07T12:05:55;3.40;99.90
12053;DHT22;6087;48.982;12.064;2022-12-07T12:08:29;3.30;99.90
12053;DHT22;6087;48.982;12.064;2022-12-07T12:11:02;3.30;99.90
12053;DHT22;6087;48.982;12.064;2022-12-07T12:13:57;3.30;1.00
12053;DHT22;6087;48.982;12.064;2022-12-07T12:16:46;3.30;1.00
12053;DHT22;6087;48.982;12.064;2022-12-07T12:19:27;3.30;99.90
12053;DHT22;6087;48.982;12.064;2022-12-07T12:22:00;3.30;1.00
12053;DHT22;6087;48.982;12.064;2022-12-07T12:24:32;3.30;1.00
12053;DHT22;6087;48.982;12.064;2022-12-07T12:27:03;3.30;1.00
12053;DHT22;6087;48.982;12.064;2022-12-07T12:29:33;3.40;1.00
12053;DHT22;6087;48.982;12.064;2022-12-07T12:32:13;3.40;1.00
12053;DHT22;6087;48.982;12.064;2022-12-07T12:34:56;3.40;99.90
12053;DHT22;6087;48.982;12.064;2022-12-07T12:37:43;3.40;1.00
12053;DHT22;6087;48.982;12.064;2022-12-07T12:40:39;3.30;1.00
12053;DHT22;6087;48.982;12.064;2022-12-07T12:46:45;3.30;1.00
12053;DHT22;6087;48.982;12.064;2022-12-07T12:49:40;3.30;1.00
12053;DHT22;6087;48.982;12.064;2022-12-07T12:58:44;3.30;1.00
12053;DHT22;6087;48.982;12.064;2022-12-07T13:01:44;3.20;1.00
12053;DHT22;6087;48.982;12.064;2022-12-07T13:04:24;3.30;1.00
12053;DHT22;6087;48.982;12.064;2022-12-07T13:06:52;3.30;1.00
12053;DHT22;6087;48.982;12.064;2022-12-07T13:09:22;3.20;1.00
12053;DHT22;6087;48.982;12.064;2022-12-07T13:12:00;3.20;1.00
12053;DHT22;6087;48.982;12.064;2022-12-07T13:14:42;3.20;1.00
12053;DHT22;6087;48.982;12.064;2022-12-07T13:17:10;3.20;1.00
12053;DHT22;6087;48.982;12.064;2022-12-07T13:19:59;3.20;1.00
12053;DHT22;6087;48.982;12.064;2022-12-07T13:22:53;3.40;1.00
12053;DHT22;6087;48.982;12.064;2022-12-07T13:25:31;3.40;1.00
12053;DHT22;6087;48.982;12.064;2022-12-07T13:28:07;3.40;1.00
12053;DHT22;6087;48.982;12.064;2022-12-07T13:30:45;3.40;1.00
12053;DHT22;6087;48.982;12.064;2022-12-07T13:33:15;3.50;1.00
12053;DHT22;6087;48.982;12.064;2022-12-07T13:35:43;3.50;1.00
12053;DHT22;6087;48.982;12.064;2022-12-07T13:38:22;3.50;1.00
12053;DHT22;6087;48.982;12.064;2022-12-07T13:41:03;3.50;1.00
12053;DHT22;6087;48.982;12.064;2022-12-07T13:43:31;3.40;1.00
12053;DHT22;6087;48.982;12.064;2022-12-07T13:46:00;3.40;1.00
12053;DHT22;6087;48.982;12.064;2022-12-07T13:48:31;3.40;1.00
12053;DHT22;6087;48.982;12.064;2022-12-07T13:51:00;3.50;1.00
12053;DHT22;6087;48.982;12.064;2022-12-07T13:53:28;3.50;1.00
12053;DHT22;6087;48.982;12.064;2022-12-07T13:55:57;3.50;1.00
12053;DHT22;6087;48.982;12.064;2022-12-07T13:58:24;3.50;1.00
12053;DHT22;6087;48.982;12.064;2022-12-07T14:00:52;3.50;1.00
12053;DHT22;6087;48.982;12.064;2022-12-07T14:03:31;3.50;1.00
12053;DHT22;6087;48.982;12.064;2022-12-07T14:06:13;3.50;1.00
12053;DHT22;6087;48.982;12.064;2022-12-07T14:08:41;3.60;1.00
12053;DHT22;6087;48.982;12.064;2022-12-07T14:11:13;3.60;1.00
12053;DHT22;6087;48.982;12.064;2022-12-07T14:13:50;3.50;1.00
12053;DHT22;6087;48.982;12.064;2022-12-07T14:16:24;3.50;1.00
12053;DHT22;6087;48.982;12.064;2022-12-07T14:18:55;3.60;1.00
12053;DHT22;6087;48.982;12.064;2022-12-07T14:21:23;3.60;1.00
12053;DHT22;6087;48.982;12.064;2022-12-07T14:24:17;3.50;1.00
12053;DHT22;6087;48.982;12.064;2022-12-07T14:26:45;3.50;1.00
12053;DHT22;6087;48.982;12.064;2022-12-07T14:29:29;3.60;1.00
12053;DHT22;6087;48.982;12.064;2022-12-07T14:31:57;3.50;1.00
12053;DHT22;6087;48.982;12.064;2022-12-07T14:34:26;3.50;1.00
12053;DHT22;6087;48.982;12.064;2022-12-07T14:36:53;3.60;1.00
12053;DHT22;6087;48.982;12.064;2022-12-07T14:39:20;3.50;1.00
12053;DHT22;6087;48.982;12.064;2022-12-07T14:41:47;3.50;1.00
12053;DHT22;6087;48.982;12.064;2022-12-07T14:44:18;3.50;1.00
12053;DHT22;6087;48.982;12.064;2022-12-07T14:46:46;3.40;1.00
12053;DHT22;6087;48.982;12.064;2022-12-07T14:49:13;3.40;1.00
12053;DHT22;6087;48.982;12.064;2022-12-07T14:51:42;3.50;1.00
12053;DHT22;6087;48.982;12.064;2022-12-07T14:54:15;3.40;1.00
12053;DHT22;6087;48.982;12.064;2022-12-07T14:56:43;3.40;1.00
12053;DHT22;6087;48.982;12.064;2022-12-07T14:59:11;3.40;1.00
12053;DHT22;6087;48.982;12.064;2022-12-07T15:01:38;3.40;1.00
12053;DHT22;6087;48.982;12.064;2022-12-07T15:04:05;3.40;1.00
12053;DHT22;6087;48.982;12.064;2022-12-07T15:06:32;3.40;1.00
12053;DHT22;6087;48.982;12.064;2022-12-07T15:09:01;3.50;1.00
12053;DHT22;6087;48.982;12.064;2022-12-07T15:11:28;3.50;1.00
12053;DHT22;6087;48.982;12.064;2022-12-07T15:13:55;3.50;1.00
12053;DHT22;6087;48.982;12.064;2022-12-07T15:16:39;3.50;1.00
12053;DHT22;6087;48.982;12.064;2022-12-07T15:19:11;3.50;1.00
12053;DHT22;6087;48.982;12.064;2022-12-07T15:21:38;3.50;1.00
12053;DHT22;6087;48.982;12.064;2022-12-07T15:24:08;3.60;1.00
12053;DHT22;6087;48.982;12.064;2022-12-07T15:26:36;3.50;1.00
12053;DHT22;6087;48.982;12.064;2022-12-07T15:29:03;3.60;1.00
12053;DHT22;6087;48.982;12.064;2022-12-07T15:31:30;3.60;1.00
12053;DHT22;6087;48.982;12.064;2022-12-07T15:33:57;3.50;1.00
12053;DHT22;6087;48.982;12.064;2022-12-07T15:36:26;3.50;1.00
12053;DHT22;6087;48.982;12.064;2022-12-07T15:38:54;3.50;1.00
12053;DHT22;6087;48.982;12.064;2022-12-07T15:41:23;3.50;1.00
12053;DHT22;6087;48.982;12.064;2022-12-07T15:43:50;3.50;1.00
12053;DHT22;6087;48.982;12.064;2022-12-07T15:46:37;3.50;1.00
12053;DHT22;6087;48.982;12.064;2022-12-07T15:49:04;3.60;1.00
12053;DHT22;6087;48.982;12.064;2022-12-07T15:51:31;3.50;1.00
12053;DHT22;6087;48.982;12.064;2022-12-07T15:53:58;3.50;1.00
12053;DHT22;6087;48.982;12.064;2022-12-07T15:56:26;3.50;1.00
12053;DHT22;6087;48.982;12.064;2022-12-07T15:58:53;3.50;1.00
12053;DHT22;6087;48.982;12.064;2022-12-07T16:01:20;3.40;1.00
12053;DHT22;6087;48.982;12.064;2022-12-07T16:03:47;3.40;1.00
12053;DHT22;6087;48.982;12.064;2022-12-07T16:06:16;3.40;1.00
12053;DHT22;6087;48.982;12.064;2022-12-07T16:08:43;3.40;1.00
12053;DHT22;6087;48.982;12.064;2022-12-07T16:11:11;3.30;11.70
12053;DHT22;6087;48.982;12.064;2022-12-07T16:13:39;3.40;17.30
12053;DHT22;6087;48.982;12.064;2022-12-07T16:16:07;3.40;9.80
12053;DHT22;6087;48.982;12.064;2022-12-07T16:18:34;3.40;2.00
12053;DHT22;6087;48.982;12.064;2022-12-07T16:21:01;3.50;3.00
12053;DHT22;6087;48.982;12.064;2022-12-07T16:23:29;3.50;1.00
12053;DHT22;6087;48.982;12.064;2022-12-07T16:26:03;3.50;1.00
12053;DHT22;6087;48.982;12.064;2022-12-07T16:28:30;3.40;3.50
12053;DHT22;6087;48.982;12.064;2022-12-07T16:31:02;3.40;1.00